createdAt,value
2023-11-29T00:00:43.895Z,1.92
2023-11-29T00:03:14.743Z,1.89
2023-11-29T00:05:46.422Z,1.85
2023-11-29T00:08:18.908Z,1.81
2023-11-29T00:10:49.766Z,1.81
2023-11-29T00:13:21.635Z,1.78
2023-11-29T00:15:52.949Z,1.77
2023-11-29T00:18:23.955Z,1.75
2023-11-29T00:20:54.854Z,1.74
2023-11-29T00:23:25.719Z,1.74
2023-11-29T00:25:56.533Z,1.73
2023-11-29T00:28:27.341Z,1.73
2023-11-29T00:30:58.185Z,1.74
2023-11-29T00:33:29.050Z,1.73
2023-11-29T00:35:59.920Z,1.72
2023-11-29T00:38:30.811Z,1.71
2023-11-29T00:41:01.724Z,1.71
2023-11-29T00:43:33.182Z,1.71
2023-11-29T00:46:04.560Z,1.70
2023-11-29T00:48:35.435Z,1.70
2023-11-29T00:51:08.968Z,1.70
2023-11-29T00:53:40.030Z,1.69
2023-11-29T00:56:24.106Z,1.66
2023-11-29T00:58:54.962Z,1.60
2023-11-29T01:04:14.354Z,1.45
2023-11-29T01:12:21.829Z,1.25
2023-11-29T01:14:52.663Z,1.22
2023-11-29T01:17:23.518Z,1.20
2023-11-29T01:19:54.441Z,1.22
2023-11-29T01:22:25.310Z,1.22
2023-11-29T01:24:56.105Z,1.20
2023-11-29T01:27:31.533Z,1.16
2023-11-29T01:30:04.158Z,1.14
2023-11-29T01:32:35.121Z,1.11
2023-11-29T01:35:06.674Z,1.08
2023-11-29T01:37:37.527Z,1.07
2023-11-29T01:40:10.722Z,1.06
2023-11-29T01:42:41.937Z,1.03
2023-11-29T01:45:13.366Z,1.00
2023-11-29T01:47:45.085Z,0.97
2023-11-29T01:50:18.024Z,0.96
2023-11-29T01:52:49.802Z,0.94
2023-11-29T01:55:23.785Z,0.91
2023-11-29T01:57:55.763Z,0.83
2023-11-29T02:00:26.697Z,0.77
2023-11-29T02:02:57.713Z,0.77
2023-11-29T02:05:28.914Z,0.77
2023-11-29T02:08:00.218Z,0.69
2023-11-29T02:10:31.378Z,0.59
2023-11-29T02:13:02.737Z,0.47
2023-11-29T02:15:34.713Z,0.41
2023-11-29T02:18:05.658Z,0.40
2023-11-29T02:20:37.624Z,0.40
2023-11-29T02:23:16.170Z,0.39
2023-11-29T02:25:47.098Z,0.41
2023-11-29T02:28:17.944Z,0.43
2023-11-29T02:30:48.806Z,0.45
2023-11-29T02:33:19.725Z,0.46
2023-11-29T02:35:50.570Z,0.48
2023-11-29T02:38:22.666Z,0.48
2023-11-29T02:40:53.601Z,0.50
2023-11-29T02:43:24.509Z,0.49
2023-11-29T02:45:55.343Z,0.53
2023-11-29T02:48:26.276Z,0.55
2023-11-29T02:50:57.197Z,0.58
2023-11-29T02:53:28.281Z,0.61
2023-11-29T02:55:59.099Z,0.64
2023-11-29T02:58:29.937Z,0.68
2023-11-29T03:01:00.810Z,0.71
2023-11-29T03:03:31.647Z,0.75
2023-11-29T03:06:02.543Z,0.80
2023-11-29T03:08:33.492Z,0.83
2023-11-29T03:11:04.354Z,0.85
2023-11-29T03:13:35.186Z,0.87
2023-11-29T03:16:06.600Z,0.88
2023-11-29T03:18:37.440Z,0.89
2023-11-29T03:21:08.698Z,0.89
2023-11-29T03:23:39.511Z,0.89
2023-11-29T03:26:11.000Z,0.88
2023-11-29T03:28:41.894Z,0.86
2023-11-29T03:31:12.829Z,0.83
2023-11-29T03:33:43.648Z,0.80
2023-11-29T03:36:13.145Z,0.75
2023-11-29T03:38:43.984Z,0.70
2023-11-29T03:41:14.906Z,0.66
2023-11-29T03:43:45.749Z,0.62
2023-11-29T03:46:16.638Z,0.59
2023-11-29T03:48:47.507Z,0.56
2023-11-29T03:51:16.717Z,0.53
2023-11-29T03:53:47.639Z,0.48
2023-11-29T03:56:18.560Z,0.43
2023-11-29T03:58:49.397Z,0.37
2023-11-29T04:01:18.579Z,0.31
2023-11-29T04:03:49.524Z,0.24
2023-11-29T04:06:28.682Z,0.18
2023-11-29T04:08:59.558Z,0.14
2023-11-29T04:11:30.653Z,0.13
2023-11-29T04:14:01.669Z,0.13
2023-11-29T04:16:32.825Z,0.13
2023-11-29T04:19:03.794Z,0.13
2023-11-29T04:21:37.149Z,0.14
2023-11-29T04:24:08.512Z,0.15
2023-11-29T04:26:41.222Z,0.17
2023-11-29T04:29:13.544Z,0.17
2023-11-29T04:31:45.549Z,0.19
2023-11-29T04:34:23.440Z,0.19
2023-11-29T04:37:04.060Z,0.21
2023-11-29T04:39:34.873Z,0.21
2023-11-29T04:42:04.065Z,0.21
2023-11-29T04:44:37.005Z,0.21
2023-11-29T04:47:09.581Z,0.22
2023-11-29T04:49:41.165Z,0.23
2023-11-29T04:52:12.072Z,0.24
2023-11-29T04:54:42.881Z,0.23
2023-11-29T04:57:12.091Z,0.22
2023-11-29T04:59:42.921Z,0.21
2023-11-29T05:02:13.930Z,0.20
2023-11-29T05:04:44.832Z,0.19
2023-11-29T05:07:16.411Z,0.18
2023-11-29T05:09:47.231Z,0.17
2023-11-29T05:12:16.522Z,0.13
2023-11-29T05:14:47.372Z,0.11
2023-11-29T05:17:18.321Z,0.08
2023-11-29T05:19:49.296Z,0.04
2023-11-29T05:22:20.669Z,-0.02
2023-11-29T05:24:51.508Z,-0.08
2023-11-29T05:27:22.336Z,-0.13
2023-11-29T05:29:51.814Z,-0.21
2023-11-29T05:32:22.759Z,-0.27
2023-11-29T05:34:53.691Z,-0.33
2023-11-29T05:37:24.527Z,-0.40
2023-11-29T05:39:53.769Z,-0.47
2023-11-29T05:42:24.716Z,-0.54
2023-11-29T05:44:56.163Z,-0.62
2023-11-29T05:47:27.122Z,-0.69
2023-11-29T05:49:57.994Z,-0.73
2023-11-29T05:52:29.058Z,-0.76
2023-11-29T05:55:01.482Z,-0.79
2023-11-29T05:57:32.390Z,-0.79
2023-11-29T06:00:23.451Z,-0.80
2023-11-29T06:03:01.123Z,-0.82
2023-11-29T06:05:32.992Z,-0.88
2023-11-29T06:08:04.446Z,-0.91
2023-11-29T06:10:35.272Z,-0.95
2023-11-29T06:13:04.822Z,-1.01
2023-11-29T06:15:36.854Z,-1.10
2023-11-29T06:18:09.916Z,-1.18
2023-11-29T06:20:40.892Z,-1.24
2023-11-29T06:23:11.824Z,-1.28
2023-11-29T06:25:42.683Z,-1.29
2023-11-29T06:28:11.959Z,-1.31
2023-11-29T06:30:42.815Z,-1.33
2023-11-29T06:33:12.068Z,-1.35
2023-11-29T06:35:43.200Z,-1.38
2023-11-29T06:38:14.152Z,-1.41
2023-11-29T06:40:50.520Z,-1.43
2023-11-29T06:43:25.085Z,-1.43
2023-11-29T06:45:55.998Z,-1.38
2023-11-29T06:48:26.908Z,-1.29
2023-11-29T06:50:58.248Z,-1.22
2023-11-29T06:53:29.224Z,-1.16
2023-11-29T06:56:00.136Z,-1.11
2023-11-29T06:58:31.014Z,-1.12
2023-11-29T07:01:00.301Z,-1.12
2023-11-29T07:03:31.178Z,-1.07
2023-11-29T07:06:00.535Z,-1.04
2023-11-29T07:08:32.842Z,-1.01
2023-11-29T07:11:05.848Z,-0.98
2023-11-29T07:13:36.899Z,-0.82
2023-11-29T07:16:08.705Z,-0.17
2023-11-29T07:18:39.665Z,0.35
2023-11-29T07:21:10.949Z,0.51
2023-11-29T07:23:42.150Z,0.53
2023-11-29T07:26:13.735Z,0.43
2023-11-29T07:28:46.243Z,0.33
2023-11-29T07:31:17.531Z,0.25
2023-11-29T07:33:48.597Z,0.27
2023-11-29T07:36:19.476Z,0.30
2023-11-29T07:38:51.095Z,0.41
2023-11-29T07:41:23.507Z,0.50
2023-11-29T07:43:54.486Z,0.57
2023-11-29T07:46:25.405Z,0.64
2023-11-29T07:48:56.299Z,0.68
2023-11-29T07:51:27.793Z,0.73
2023-11-29T07:53:58.695Z,0.77
2023-11-29T07:56:29.652Z,0.83
2023-11-29T07:59:00.520Z,0.91
2023-11-29T08:01:31.422Z,0.99
2023-11-29T08:04:02.409Z,1.07
2023-11-29T08:06:33.978Z,1.15
2023-11-29T08:09:05.277Z,1.29
2023-11-29T08:11:36.219Z,1.45
2023-11-29T08:14:07.158Z,1.62
2023-11-29T08:16:38.007Z,1.77
2023-11-29T08:19:09.778Z,1.95
2023-11-29T08:21:40.742Z,2.13
2023-11-29T08:24:13.205Z,2.34
2023-11-29T08:26:44.072Z,2.56
2023-11-29T08:29:14.904Z,2.78
2023-11-29T08:31:45.739Z,2.97
2023-11-29T08:34:16.625Z,3.08
2023-11-29T08:36:48.009Z,3.20
2023-11-29T08:39:18.895Z,3.36
2023-11-29T08:41:49.872Z,3.55
2023-11-29T08:44:20.811Z,3.76
2023-11-29T08:46:51.754Z,4.02
2023-11-29T08:49:22.654Z,4.19
2023-11-29T08:51:53.987Z,4.42
2023-11-29T08:54:24.932Z,4.69
2023-11-29T08:56:55.881Z,4.93
2023-11-29T08:59:26.794Z,5.12
2023-11-29T09:01:57.865Z,5.19
2023-11-29T09:04:28.796Z,5.30
2023-11-29T09:07:00.660Z,5.48
2023-11-29T09:09:31.786Z,5.70
2023-11-29T09:12:04.473Z,5.89
2023-11-29T09:14:35.410Z,6.03
2023-11-29T09:17:06.872Z,6.14
2023-11-29T09:19:38.104Z,6.25
2023-11-29T09:22:09.736Z,6.34
2023-11-29T09:24:40.698Z,6.40
2023-11-29T09:27:12.820Z,6.53
2023-11-29T09:29:43.946Z,6.65
2023-11-29T09:32:14.808Z,6.74
2023-11-29T09:34:46.121Z,6.90
2023-11-29T09:37:17.258Z,7.01
2023-11-29T09:39:48.193Z,7.05
2023-11-29T09:42:23.212Z,7.16
2023-11-29T09:44:56.927Z,7.28
2023-11-29T09:47:28.236Z,7.36
2023-11-29T09:50:01.650Z,7.42
2023-11-29T09:52:32.724Z,7.47
2023-11-29T09:55:04.602Z,7.56
2023-11-29T09:57:36.365Z,7.57
2023-11-29T10:00:11.553Z,7.58
2023-11-29T10:02:43.185Z,7.70
2023-11-29T10:05:14.843Z,7.77
2023-11-29T10:07:47.032Z,7.90
2023-11-29T10:10:17.952Z,7.98
2023-11-29T10:12:48.794Z,8.09
2023-11-29T10:15:19.724Z,8.17
2023-11-29T10:17:52.841Z,8.24
2023-11-29T10:20:27.990Z,8.36
2023-11-29T10:22:58.888Z,8.50
2023-11-29T10:25:30.635Z,8.55
2023-11-29T10:28:01.489Z,8.60
2023-11-29T10:30:32.481Z,8.72
2023-11-29T10:33:05.085Z,8.77
2023-11-29T10:35:36.845Z,8.87
2023-11-29T10:38:13.344Z,8.94
2023-11-29T10:40:45.851Z,8.93
2023-11-29T10:43:20.775Z,8.94
2023-11-29T10:45:57.576Z,8.90
2023-11-29T10:48:32.397Z,8.88
2023-11-29T10:51:04.373Z,8.82
2023-11-29T10:53:36.246Z,8.82
2023-11-29T10:56:08.387Z,8.86
2023-11-29T10:58:47.901Z,9.00
2023-11-29T11:01:32.211Z,9.16
2023-11-29T11:04:10.175Z,9.28
2023-11-29T11:06:42.433Z,9.37
2023-11-29T11:09:37.305Z,9.50
2023-11-29T11:12:09.636Z,9.60
2023-11-29T11:14:56.247Z,9.68
2023-11-29T11:17:28.599Z,9.69
2023-11-29T11:20:09.088Z,9.62
2023-11-29T11:22:44.861Z,9.66
2023-11-29T11:25:17.899Z,9.73
2023-11-29T11:27:50.340Z,9.83
2023-11-29T11:30:29.480Z,9.83
2023-11-29T11:33:01.789Z,9.70
2023-11-29T11:35:39.645Z,9.69
2023-11-29T11:38:12.301Z,9.77
2023-11-29T11:40:44.075Z,9.86
2023-11-29T11:43:17.433Z,9.96
2023-11-29T11:45:49.692Z,10.06
2023-11-29T11:48:23.859Z,10.03
2023-11-29T11:50:57.005Z,9.87
2023-11-29T11:53:27.866Z,9.72
2023-11-29T11:55:58.711Z,9.67
2023-11-29T11:58:29.953Z,9.71
2023-11-29T12:01:00.887Z,9.71
2023-11-29T12:03:31.772Z,9.52
2023-11-29T12:06:05.655Z,9.27
2023-11-29T12:08:37.264Z,9.10
2023-11-29T12:11:10.949Z,8.87
2023-11-29T12:13:42.213Z,8.68
2023-11-29T12:16:20.201Z,8.45
2023-11-29T12:18:51.362Z,8.19
2023-11-29T12:21:22.946Z,7.97
2023-11-29T12:23:53.783Z,7.84
2023-11-29T12:26:25.103Z,7.67
2023-11-29T12:29:00.062Z,7.48
2023-11-29T12:31:35.650Z,7.28
2023-11-29T12:34:06.924Z,7.12
2023-11-29T12:36:37.890Z,6.97
2023-11-29T12:39:08.903Z,6.87
2023-11-29T12:41:40.578Z,6.73
2023-11-29T12:44:11.608Z,6.58
2023-11-29T12:46:42.500Z,6.44
2023-11-29T12:49:13.396Z,6.37
2023-11-29T12:51:44.249Z,6.32
2023-11-29T12:54:20.741Z,6.24
2023-11-29T12:56:56.431Z,6.20
2023-11-29T12:59:27.525Z,6.17
2023-11-29T13:01:58.476Z,6.11
2023-11-29T13:04:30.218Z,6.06
2023-11-29T13:07:01.118Z,6.02
2023-11-29T13:09:33.194Z,5.97
2023-11-29T13:12:04.369Z,5.98
2023-11-29T13:14:42.697Z,6.03
2023-11-29T13:17:14.413Z,6.13
2023-11-29T13:19:45.519Z,6.21
2023-11-29T13:22:16.406Z,6.27
2023-11-29T13:24:47.317Z,6.35
2023-11-29T13:27:18.300Z,6.49
2023-11-29T13:29:49.218Z,6.66
2023-11-29T13:32:20.098Z,6.87
2023-11-29T13:34:50.949Z,7.04
2023-11-29T13:37:21.860Z,7.23
2023-11-29T13:39:52.743Z,7.31
2023-11-29T13:42:23.638Z,7.24
2023-11-29T13:44:54.467Z,7.07
2023-11-29T13:47:27.148Z,7.00
2023-11-29T13:49:58.016Z,7.00
2023-11-29T13:52:28.851Z,7.06
2023-11-29T13:54:59.761Z,7.14
2023-11-29T13:57:30.579Z,7.18
2023-11-29T14:00:01.802Z,7.14
2023-11-29T14:02:32.869Z,7.03
2023-11-29T14:05:04.033Z,6.90
2023-11-29T14:07:36.144Z,6.77
2023-11-29T14:10:08.535Z,6.62
2023-11-29T14:12:39.433Z,6.47
2023-11-29T14:15:11.954Z,6.33
2023-11-29T14:17:42.881Z,6.14
2023-11-29T14:20:14.601Z,6.00
2023-11-29T14:22:45.431Z,5.86
2023-11-29T14:25:16.400Z,5.75
2023-11-29T14:27:54.306Z,5.64
2023-11-29T14:30:28.854Z,5.54
2023-11-29T14:32:59.843Z,5.44
2023-11-29T14:35:30.786Z,5.32
2023-11-29T14:38:01.688Z,5.21
2023-11-29T14:40:32.666Z,5.13
2023-11-29T14:43:03.967Z,5.04
2023-11-29T14:45:34.809Z,4.99
2023-11-29T14:48:09.305Z,4.90
2023-11-29T14:50:40.214Z,4.81
2023-11-29T14:53:11.360Z,4.72
2023-11-29T14:55:42.189Z,4.63
2023-11-29T14:58:13.318Z,4.55
2023-11-29T15:00:44.187Z,4.46
2023-11-29T15:03:15.102Z,4.39
2023-11-29T15:05:45.944Z,4.32
2023-11-29T15:08:16.994Z,4.25
2023-11-29T15:10:47.833Z,4.16
2023-11-29T15:13:18.868Z,4.08
2023-11-29T15:15:49.764Z,3.98
2023-11-29T15:18:20.962Z,3.88
2023-11-29T15:20:51.942Z,3.82
2023-11-29T15:23:22.784Z,3.74
2023-11-29T15:25:53.665Z,3.68
2023-11-29T15:28:24.740Z,3.62
2023-11-29T15:30:55.590Z,3.56
2023-11-29T15:33:26.613Z,3.50
2023-11-29T15:35:58.860Z,3.44
2023-11-29T15:38:30.103Z,3.39
2023-11-29T15:41:01.905Z,3.34
2023-11-29T15:43:33.362Z,3.27
2023-11-29T15:46:04.331Z,3.20
2023-11-29T15:48:35.487Z,3.14
2023-11-29T15:51:07.213Z,3.08
2023-11-29T15:53:38.124Z,3.00
2023-11-29T15:56:10.585Z,2.96
2023-11-29T15:58:44.597Z,2.93
2023-11-29T16:01:15.623Z,2.91
2023-11-29T16:03:46.592Z,2.87
2023-11-29T16:06:17.572Z,2.84
2023-11-29T16:08:48.623Z,2.83
2023-11-29T16:11:19.491Z,2.80
2023-11-29T16:13:50.419Z,2.79
2023-11-29T16:16:21.631Z,2.77
2023-11-29T16:18:52.685Z,2.77
2023-11-29T16:21:24.013Z,2.78
2023-11-29T16:23:54.960Z,2.85
2023-11-29T16:26:25.881Z,2.92
2023-11-29T16:28:56.783Z,2.99
2023-11-29T16:31:27.705Z,3.08
2023-11-29T16:33:58.658Z,3.15
2023-11-29T16:36:29.701Z,3.20
2023-11-29T16:39:00.591Z,3.22
2023-11-29T16:41:31.458Z,3.23
2023-11-29T16:44:02.336Z,3.22
2023-11-29T16:46:35.039Z,3.20
2023-11-29T16:49:06.499Z,3.20
2023-11-29T16:51:39.450Z,3.18
2023-11-29T16:54:10.335Z,3.15
2023-11-29T16:56:46.121Z,3.13
2023-11-29T16:59:16.995Z,3.11
2023-11-29T17:01:47.837Z,3.09
2023-11-29T17:04:18.760Z,3.07
2023-11-29T17:06:49.591Z,3.03
2023-11-29T17:09:20.452Z,3.01
2023-11-29T17:11:51.611Z,3.00
2023-11-29T17:14:22.471Z,2.99
2023-11-29T17:16:53.384Z,2.97
2023-11-29T17:19:24.284Z,2.93
2023-11-29T17:21:55.637Z,2.90
2023-11-29T17:24:26.485Z,2.87
2023-11-29T17:26:57.366Z,2.83
2023-11-29T17:29:29.493Z,2.78
2023-11-29T17:32:00.353Z,2.75
2023-11-29T17:34:31.208Z,2.72
2023-11-29T17:37:02.046Z,2.69
2023-11-29T17:39:32.911Z,2.65
2023-11-29T17:42:03.802Z,2.62
2023-11-29T17:44:34.713Z,2.59
2023-11-29T17:47:05.830Z,2.58
2023-11-29T17:49:36.840Z,2.61
2023-11-29T17:52:10.004Z,2.65
2023-11-29T17:54:40.955Z,2.70
2023-11-29T17:57:12.350Z,2.74
2023-11-29T17:59:43.287Z,2.74
2023-11-29T18:02:14.278Z,2.74
2023-11-29T18:04:46.307Z,2.71
2023-11-29T18:07:17.330Z,2.68
2023-11-29T18:09:48.189Z,2.66
2023-11-29T18:12:19.107Z,2.63
2023-11-29T18:14:50.003Z,2.59
2023-11-29T18:17:20.939Z,2.52
2023-11-29T18:19:51.823Z,2.41
2023-11-29T18:22:22.709Z,2.34
2023-11-29T18:24:53.572Z,2.28
2023-11-29T18:27:24.465Z,2.21
2023-11-29T18:29:55.372Z,2.11
2023-11-29T18:32:26.342Z,2.03
2023-11-29T18:34:57.184Z,1.98
2023-11-29T18:37:28.018Z,1.94
2023-11-29T18:39:58.862Z,1.90
2023-11-29T18:42:29.693Z,1.86
2023-11-29T18:45:00.773Z,1.81
2023-11-29T18:47:31.712Z,1.72
2023-11-29T18:50:02.947Z,1.67
2023-11-29T18:52:33.770Z,1.62
2023-11-29T18:55:04.878Z,1.59
2023-11-29T18:57:40.038Z,1.55
2023-11-29T19:00:14.783Z,1.55
2023-11-29T19:02:45.902Z,1.57
2023-11-29T19:05:17.664Z,1.61
2023-11-29T19:07:48.775Z,1.66
2023-11-29T19:10:20.021Z,1.70
2023-11-29T19:12:50.857Z,1.72
2023-11-29T19:15:22.026Z,1.74
2023-11-29T19:17:52.975Z,1.74
2023-11-29T19:20:24.025Z,1.73
2023-11-29T19:22:54.915Z,1.71
2023-11-29T19:25:25.793Z,1.63
2023-11-29T19:27:56.616Z,1.46
2023-11-29T19:30:27.732Z,1.37
2023-11-29T19:32:58.435Z,1.32
2023-11-29T19:35:32.743Z,1.28
2023-11-29T19:38:03.614Z,1.24
2023-11-29T19:40:34.488Z,1.22
2023-11-29T19:43:05.335Z,1.18
2023-11-29T19:45:36.198Z,1.12
2023-11-29T19:48:07.627Z,1.10
2023-11-29T19:50:38.608Z,1.06
2023-11-29T19:53:10.052Z,1.04
2023-11-29T19:55:40.926Z,1.03
2023-11-29T19:58:23.300Z,1.02
2023-11-29T20:00:58.930Z,1.11
2023-11-29T20:03:29.905Z,1.19
2023-11-29T20:06:01.343Z,1.27
2023-11-29T20:08:32.289Z,1.34
2023-11-29T20:11:03.447Z,1.38
2023-11-29T20:13:34.253Z,1.39
2023-11-29T20:16:06.017Z,1.40
2023-11-29T20:18:38.074Z,1.48
2023-11-29T20:21:10.545Z,1.88
2023-11-29T20:23:41.625Z,1.92
2023-11-29T20:26:13.140Z,1.87
2023-11-29T20:28:44.206Z,1.79
2023-11-29T20:31:15.391Z,1.74
2023-11-29T20:33:46.432Z,1.68
2023-11-29T20:36:17.406Z,1.65
2023-11-29T20:38:48.252Z,1.66
2023-11-29T20:41:23.679Z,1.66
2023-11-29T20:43:54.514Z,1.66
2023-11-29T20:46:25.444Z,1.62
2023-11-29T20:48:56.223Z,1.57
2023-11-29T20:51:27.165Z,1.54
2023-11-29T20:53:57.896Z,1.41
2023-11-29T20:56:27.026Z,1.26
2023-11-29T20:58:57.685Z,1.13
2023-11-29T21:01:26.757Z,1.06
2023-11-29T21:03:57.661Z,1.05
2023-11-29T21:06:28.648Z,1.03
2023-11-29T21:08:59.324Z,1.01
2023-11-29T21:11:29.595Z,0.97
2023-11-29T21:14:00.417Z,0.92
2023-11-29T21:16:31.126Z,0.88
2023-11-29T21:19:00.348Z,0.84
2023-11-29T21:21:31.747Z,0.83
2023-11-29T21:24:02.490Z,0.84
2023-11-29T21:26:31.537Z,0.91
2023-11-29T21:29:02.223Z,0.94
2023-11-29T21:31:33.235Z,1.00
2023-11-29T21:34:04.137Z,0.99
2023-11-29T21:36:33.608Z,1.00
2023-11-29T21:39:04.586Z,1.02
2023-11-29T21:41:35.288Z,1.01
2023-11-29T21:44:04.381Z,0.96
2023-11-29T21:46:35.087Z,0.88
2023-11-29T21:49:04.325Z,0.81
2023-11-29T21:51:35.543Z,0.76
2023-11-29T21:54:06.579Z,0.71
2023-11-29T21:56:37.730Z,0.66
2023-11-29T21:59:08.552Z,0.60
2023-11-29T22:01:39.281Z,0.51
2023-11-29T22:04:08.478Z,0.39
2023-11-29T22:06:39.177Z,0.30
2023-11-29T22:09:12.270Z,0.25
2023-11-29T22:11:43.419Z,0.20
2023-11-29T22:14:14.275Z,0.17
2023-11-29T22:16:44.990Z,0.11
2023-11-29T22:19:14.539Z,0.06
2023-11-29T22:21:45.279Z,-0.02
2023-11-29T22:24:16.002Z,-0.09
2023-11-29T22:26:52.490Z,-0.13
2023-11-29T22:29:27.801Z,-0.12
2023-11-29T22:31:59.423Z,-0.09
2023-11-29T22:34:30.135Z,-0.08
2023-11-29T22:37:00.804Z,-0.05
2023-11-29T22:39:32.409Z,-0.01
2023-11-29T22:42:03.088Z,0.03
2023-11-29T22:44:33.765Z,-0.02
2023-11-29T22:47:03.679Z,-0.11
2023-11-29T22:49:34.909Z,-0.22
2023-11-29T22:52:06.948Z,-0.35
2023-11-29T22:54:37.792Z,-0.43
2023-11-29T22:57:09.275Z,-0.46
2023-11-29T22:59:40.031Z,-0.50
2023-11-29T23:02:10.748Z,-0.55
2023-11-29T23:04:39.879Z,-0.55
2023-11-29T23:07:10.555Z,-0.60
2023-11-29T23:09:41.954Z,-0.70
2023-11-29T23:12:12.675Z,-0.76
2023-11-29T23:14:41.724Z,-0.79
2023-11-29T23:17:12.473Z,-0.84
2023-11-29T23:19:41.524Z,-0.90
2023-11-29T23:22:12.188Z,-0.98
2023-11-29T23:24:42.876Z,-1.04
2023-11-29T23:27:13.570Z,-1.11
2023-11-29T23:29:42.680Z,-1.12
2023-11-29T23:32:13.600Z,-1.06
2023-11-29T23:34:44.382Z,-1.01
2023-11-29T23:37:13.533Z,-0.94
2023-11-29T23:39:44.185Z,-0.89
2023-11-29T23:42:14.869Z,-0.82
2023-11-29T23:44:45.592Z,-0.75
2023-11-29T23:47:16.281Z,-0.76
2023-11-29T23:49:47.136Z,-0.80
2023-11-29T23:52:16.602Z,-0.88
2023-11-29T23:54:45.689Z,-0.93
2023-11-29T23:57:16.431Z,-0.99
2023-11-29T23:59:47.111Z,-1.06
